Aeroporto :
LOGIN :

Iscrizione | Disclaimer

   EN    FR    IT 

 










Sommario :    VFR   VFR Marginale   IFR   IFR Intensivo   IFR Molto Intensivo
Visibilità : 
Base nubi : 
>= 8 km
>= 3000ft
5 / 8 km
1000 / 3000 ft
1500m / 5 km
500 / 1000 ft
800 / 1500m
200 / 500 ft
< 800m
< 200 ft
Simboli :   Temporali  Nebbia  Neve Forte  Precipitazioni Forti  Vento > 20 kt
SIGMETs :   Varie  Temporali  Ghiacco  Turbolenza  Onda orograficha  Ceneri Vulcaniche






- Altitudine del aeroporto : 74 ft
- Codice IATA : EIN


EHEH - Eindhoven

ULTIMO METAR :
  • 190155Z AUTO 27004KT 9999 NCD 01/M00 Q1032 BLU

METARs OBSOLETI :
  • 190125Z AUTO 27005KT 240V320 9999 FEW085 01/00 Q1032 BLU
  • 190055Z AUTO 28004KT 240V320 9999 FEW029 SCT032 01/00 Q1032 BLU
  • 190025Z AUTO 26004KT 9999 NCD 01/00 Q1031 BLU
  • 182355Z AUTO 25004KT 9999 FEW056 01/00 Q1031 BLU
  • 182325Z AUTO 24004KT 220V320 9999 FEW022 SCT048 01/00 Q1031 BLU

TAF TAF EHEH
Valido dal 19 a 00 ore il 20 a 06 ore UTC


182358Z 1900/2006 28006KT 9999 SCT025
PROB30
TEMPO 1900/1906 FEW010 SCT020CB
BECMG 1906/1909 33007KT
BECMG 1922/2001 4000 BR
PROB40 2001/2006 0800 FG



MetMap, La meteo Aeronautica in un colpo d'occhio ! - Copyright ORBIFLY Dicembre 2007 - Disclaimer

ORBIFLY MET'MAP TEAM :

Programmazione e sviluppo : Alexandra Zaïnal
Concezione : Baudouin d'Aumeries
Aiuto per la programmazione : Marc-Olivier Méhu
Supporto tecnico e logistico : Manuel Goepfert
Aiuto per la traduzione : Arnaldo La Scala

Contatto : metmap@orbifly.com




FONTI E CREDITI :

   NOAA